createdAt,value
2022-09-13T00:01:22.741Z,99.90
2022-09-13T00:03:51.373Z,99.90
2022-09-13T00:06:22.091Z,99.90
2022-09-13T00:08:50.935Z,99.90
2022-09-13T00:11:22.744Z,99.90
2022-09-13T00:13:51.585Z,99.90
2022-09-13T00:16:24.981Z,99.90
2022-09-13T00:18:54.991Z,99.90
2022-09-13T00:21:25.496Z,99.90
2022-09-13T00:23:55.940Z,99.90
2022-09-13T00:26:26.639Z,99.90
2022-09-13T00:28:57.788Z,99.90
2022-09-13T00:31:29.747Z,99.90
2022-09-13T00:34:01.162Z,99.90
2022-09-13T00:36:30.439Z,99.90
2022-09-13T00:39:00.510Z,99.90
2022-09-13T00:41:29.252Z,99.90
2022-09-13T00:44:00.582Z,99.90
2022-09-13T00:46:39.018Z,99.90
2022-09-13T00:49:19.751Z,99.90
2022-09-13T00:51:55.886Z,99.90
2022-09-13T00:54:29.748Z,99.90
2022-09-13T00:57:03.707Z,99.90
2022-09-13T00:59:38.745Z,99.90
2022-09-13T01:02:09.453Z,99.90
2022-09-13T01:04:40.044Z,99.90
2022-09-13T01:07:14.099Z,99.90
2022-09-13T01:09:49.135Z,99.90
2022-09-13T01:12:33.411Z,99.90
2022-09-13T01:15:06.394Z,99.90
2022-09-13T01:17:39.500Z,99.90
2022-09-13T01:20:11.350Z,99.90
2022-09-13T01:23:44.884Z,99.90
2022-09-13T01:26:59.860Z,99.90
2022-09-13T01:30:21.959Z,99.90
2022-09-13T01:33:37.357Z,99.90
2022-09-13T01:36:48.840Z,99.90
2022-09-13T01:39:30.481Z,99.90
2022-09-13T01:42:16.550Z,99.90
2022-09-13T01:45:07.999Z,99.90
2022-09-13T01:47:50.359Z,99.90
2022-09-13T01:50:30.110Z,99.90
2022-09-13T01:53:04.186Z,99.90
2022-09-13T01:55:41.869Z,99.90
2022-09-13T01:58:22.290Z,99.90
2022-09-13T02:01:05.532Z,99.90
2022-09-13T02:03:41.112Z,99.90
2022-09-13T02:06:15.296Z,99.90
2022-09-13T02:08:49.262Z,99.90
2022-09-13T02:11:21.012Z,99.90
2022-09-13T02:13:57.233Z,99.90
2022-09-13T02:16:34.956Z,99.90
2022-09-13T02:19:13.758Z,99.90
2022-09-13T02:21:48.001Z,99.90
2022-09-13T02:24:22.808Z,99.90
2022-09-13T02:26:55.741Z,99.90
2022-09-13T02:29:29.330Z,99.90
2022-09-13T02:32:09.081Z,99.90
2022-09-13T02:34:43.402Z,99.90
2022-09-13T02:37:13.859Z,99.90
2022-09-13T02:39:52.387Z,99.90
2022-09-13T02:42:27.007Z,99.90
2022-09-13T02:44:59.847Z,99.90
2022-09-13T02:47:43.836Z,99.90
2022-09-13T02:50:37.655Z,99.90
2022-09-13T02:53:20.687Z,99.90
2022-09-13T02:56:01.604Z,99.90
2022-09-13T02:58:46.400Z,99.90
2022-09-13T03:01:16.358Z,99.90
2022-09-13T03:03:46.749Z,99.90
2022-09-13T03:06:23.807Z,99.90
2022-09-13T03:08:52.651Z,99.90
2022-09-13T03:11:39.818Z,99.90
2022-09-13T03:14:29.211Z,99.90
2022-09-13T03:17:29.660Z,99.90
2022-09-13T03:20:19.719Z,99.90
2022-09-13T03:23:33.813Z,99.90
2022-09-13T03:26:23.355Z,99.90
2022-09-13T03:29:24.990Z,99.90
2022-09-13T03:32:09.566Z,99.90
2022-09-13T03:34:49.759Z,99.90
2022-09-13T03:37:32.685Z,99.90
2022-09-13T03:40:09.614Z,99.90
2022-09-13T03:42:47.388Z,99.90
2022-09-13T03:45:20.255Z,99.90
2022-09-13T03:47:51.861Z,99.90
2022-09-13T03:50:25.038Z,99.90
2022-09-13T03:53:02.536Z,99.90
2022-09-13T03:55:34.429Z,99.90
2022-09-13T03:58:03.269Z,99.90
2022-09-13T04:00:32.144Z,99.90
2022-09-13T04:03:19.096Z,99.90
2022-09-13T04:05:48.150Z,99.90
2022-09-13T04:08:18.128Z,99.90
2022-09-13T04:10:51.158Z,99.90
2022-09-13T04:13:21.170Z,99.90
2022-09-13T04:15:50.271Z,99.90
2022-09-13T04:18:19.099Z,99.90
2022-09-13T04:20:55.581Z,99.90
2022-09-13T04:23:26.871Z,99.90
2022-09-13T04:25:56.531Z,99.90
2022-09-13T04:28:25.108Z,99.90
2022-09-13T04:30:53.725Z,99.90
2022-09-13T04:33:22.544Z,99.90
2022-09-13T04:35:59.171Z,99.90
2022-09-13T04:38:32.053Z,99.90
2022-09-13T04:41:00.627Z,99.90
2022-09-13T04:43:29.220Z,99.90
2022-09-13T04:46:01.973Z,99.90
2022-09-13T04:48:31.060Z,99.90
2022-09-13T04:51:04.845Z,99.90
2022-09-13T04:53:36.027Z,99.90
2022-09-13T04:56:06.626Z,99.90
2022-09-13T04:58:35.225Z,99.90
2022-09-13T05:01:04.396Z,99.90
2022-09-13T05:03:33.911Z,99.90
2022-09-13T05:06:06.192Z,99.90
2022-09-13T05:08:37.323Z,99.90
2022-09-13T05:11:07.746Z,99.90
2022-09-13T05:13:37.111Z,99.90
2022-09-13T05:16:09.134Z,99.90
2022-09-13T05:18:43.165Z,99.90
2022-09-13T05:21:13.735Z,99.90
2022-09-13T05:23:43.674Z,99.90
2022-09-13T05:26:12.750Z,99.90
2022-09-13T05:28:41.360Z,99.90
2022-09-13T05:31:17.252Z,99.90
2022-09-13T05:33:48.402Z,99.90
2022-09-13T05:36:16.995Z,99.90
2022-09-13T05:38:46.998Z,99.90
2022-09-13T05:41:15.564Z,99.90
2022-09-13T05:43:44.170Z,99.90
2022-09-13T05:46:15.606Z,99.90
2022-09-13T05:48:45.423Z,99.90
2022-09-13T05:51:16.734Z,99.90
2022-09-13T05:53:48.891Z,99.90
2022-09-13T05:56:20.124Z,99.90
2022-09-13T05:58:51.811Z,99.90
2022-09-13T06:01:23.358Z,99.90
2022-09-13T06:03:53.936Z,99.90
2022-09-13T06:06:24.233Z,99.90
2022-09-13T06:08:56.261Z,99.90
2022-09-13T06:11:26.676Z,99.90
2022-09-13T06:13:55.694Z,99.90
2022-09-13T06:16:24.521Z,99.90
2022-09-13T06:18:53.152Z,99.40
2022-09-13T06:21:28.416Z,97.60
2022-09-13T06:23:59.092Z,95.50
2022-09-13T06:26:29.776Z,95.10
2022-09-13T06:28:59.523Z,94.90
2022-09-13T06:31:30.331Z,93.40
2022-09-13T06:34:02.539Z,92.50
2022-09-13T06:36:31.928Z,92.60
2022-09-13T06:39:02.181Z,91.80
2022-09-13T06:41:30.854Z,91.40
2022-09-13T06:44:01.958Z,90.20
2022-09-13T06:46:33.592Z,88.60
2022-09-13T06:49:04.731Z,89.00
2022-09-13T06:51:34.846Z,88.60
2022-09-13T06:54:06.048Z,88.70
2022-09-13T06:56:38.448Z,88.90
2022-09-13T06:59:09.721Z,89.60
2022-09-13T07:01:40.789Z,89.00
2022-09-13T07:04:12.652Z,85.80
2022-09-13T07:06:43.886Z,83.60
2022-09-13T07:09:17.390Z,81.70
2022-09-13T07:11:48.249Z,78.70
2022-09-13T07:14:19.924Z,75.70
2022-09-13T07:16:49.141Z,73.90
2022-09-13T07:19:20.259Z,72.60
2022-09-13T07:21:50.056Z,71.40
2022-09-13T07:24:21.661Z,69.30
2022-09-13T07:26:51.133Z,70.30
2022-09-13T07:29:22.828Z,69.70
2022-09-13T07:31:54.428Z,71.00
2022-09-13T07:34:25.083Z,68.60
2022-09-13T07:36:54.322Z,66.90
2022-09-13T07:39:24.394Z,66.70
2022-09-13T07:41:53.979Z,67.70
2022-09-13T07:44:22.997Z,67.40
2022-09-13T07:46:51.626Z,67.90
2022-09-13T07:49:21.651Z,68.10
2022-09-13T07:51:51.504Z,69.60
2022-09-13T07:54:21.524Z,71.50
2022-09-13T07:56:51.942Z,70.80
2022-09-13T07:59:21.214Z,70.70
2022-09-13T08:01:52.682Z,69.60
2022-09-13T08:04:26.236Z,71.00
2022-09-13T08:06:54.941Z,68.60
2022-09-13T08:09:23.589Z,67.10
2022-09-13T08:11:54.229Z,65.70
2022-09-13T08:14:24.850Z,65.30
2022-09-13T08:16:56.831Z,64.80
2022-09-13T08:19:25.452Z,65.40
2022-09-13T08:21:54.014Z,66.40
2022-09-13T08:24:23.653Z,66.70
2022-09-13T08:26:56.688Z,66.10
2022-09-13T08:29:25.581Z,67.50
2022-09-13T08:31:54.362Z,67.80
2022-09-13T08:34:22.857Z,67.20
2022-09-13T08:36:51.478Z,66.50
2022-09-13T08:39:20.170Z,65.90
2022-09-13T08:42:10.094Z,62.50
2022-09-13T08:44:49.495Z,60.80
2022-09-13T08:47:42.418Z,61.80
2022-09-13T08:50:22.382Z,63.10
2022-09-13T08:53:18.963Z,61.50
2022-09-13T08:56:07.911Z,61.60
2022-09-13T08:59:08.236Z,61.80
2022-09-13T09:01:55.387Z,61.50
2022-09-13T09:04:48.064Z,61.50
2022-09-13T09:07:22.523Z,60.60
2022-09-13T09:09:58.103Z,59.60
2022-09-13T09:12:37.603Z,58.20
2022-09-13T09:15:18.739Z,57.60
2022-09-13T09:17:56.824Z,57.40
2022-09-13T09:20:32.975Z,57.00
2022-09-13T09:23:07.825Z,55.40
2022-09-13T09:25:36.927Z,55.90
2022-09-13T09:28:15.095Z,55.60
2022-09-13T09:31:00.109Z,55.50
2022-09-13T09:33:54.874Z,55.30
2022-09-13T09:36:35.214Z,54.90
2022-09-13T09:39:06.619Z,54.50
2022-09-13T09:41:38.529Z,54.70
2022-09-13T09:44:19.864Z,54.30
2022-09-13T09:46:56.635Z,54.40
2022-09-13T09:49:53.707Z,54.80
2022-09-13T09:52:29.627Z,54.80
2022-09-13T09:55:12.283Z,54.60
2022-09-13T09:57:57.327Z,53.60
2022-09-13T10:00:30.133Z,53.30
2022-09-13T10:03:05.468Z,53.00
2022-09-13T10:05:36.635Z,51.40
2022-09-13T10:08:09.167Z,52.60
2022-09-13T10:10:42.594Z,53.90
2022-09-13T10:13:20.565Z,54.70
2022-09-13T10:16:01.376Z,54.40
2022-09-13T10:18:44.420Z,54.20
2022-09-13T10:21:25.235Z,54.20
2022-09-13T10:24:15.171Z,55.30
2022-09-13T10:26:44.179Z,55.70
2022-09-13T10:29:18.952Z,55.70
2022-09-13T10:31:53.479Z,55.40
2022-09-13T10:34:28.202Z,56.00
2022-09-13T10:37:03.871Z,56.60
2022-09-13T10:39:37.933Z,56.60
2022-09-13T10:42:10.841Z,56.60
2022-09-13T10:44:45.480Z,57.70
2022-09-13T10:47:22.774Z,58.40
2022-09-13T10:49:55.305Z,58.00
2022-09-13T10:52:34.543Z,57.40
2022-09-13T10:55:39.140Z,57.30
2022-09-13T10:58:20.406Z,57.10
2022-09-13T11:01:23.409Z,57.10
2022-09-13T11:04:53.994Z,57.60
2022-09-13T11:08:02.658Z,56.70
2022-09-13T11:10:43.276Z,57.10
2022-09-13T11:13:28.457Z,57.60
2022-09-13T11:16:05.843Z,57.40
2022-09-13T11:19:09.502Z,58.00
2022-09-13T11:21:59.056Z,58.20
2022-09-13T11:24:49.229Z,57.90
2022-09-13T11:27:32.579Z,57.70
2022-09-13T11:30:15.506Z,57.50
2022-09-13T11:33:22.181Z,57.80
2022-09-13T11:36:17.184Z,58.80
2022-09-13T11:39:03.247Z,58.10
2022-09-13T11:41:47.845Z,57.80
2022-09-13T11:45:03.515Z,58.20
2022-09-13T11:47:50.280Z,58.40
2022-09-13T11:50:34.422Z,58.70
2022-09-13T11:53:35.986Z,58.30
2022-09-13T11:56:11.551Z,58.40
2022-09-13T11:58:50.855Z,59.30
2022-09-13T12:01:26.026Z,59.10
2022-09-13T12:04:02.203Z,59.60
2022-09-13T12:06:38.364Z,60.50
2022-09-13T12:09:16.938Z,61.00
2022-09-13T12:11:52.092Z,61.10
2022-09-13T12:14:26.981Z,60.00
2022-09-13T12:17:04.373Z,60.20
2022-09-13T12:19:44.377Z,61.00
2022-09-13T12:22:14.818Z,61.50
2022-09-13T12:24:48.633Z,62.50
2022-09-13T12:27:32.299Z,62.30
2022-09-13T12:30:11.091Z,61.80
2022-09-13T12:32:40.729Z,62.10
2022-09-13T12:35:21.066Z,62.70
2022-09-13T12:38:16.287Z,62.90
2022-09-13T12:41:11.208Z,63.60
2022-09-13T12:44:37.616Z,62.70
2022-09-13T12:47:51.468Z,65.90
2022-09-13T12:50:47.568Z,65.30
2022-09-13T12:53:58.250Z,65.00
2022-09-13T12:56:47.213Z,65.90
2022-09-13T12:59:39.059Z,66.50
2022-09-13T13:02:31.599Z,64.90
2022-09-13T13:05:04.919Z,64.60
2022-09-13T13:07:39.163Z,64.20
2022-09-13T13:10:25.365Z,65.80
2022-09-13T13:12:54.328Z,66.40
2022-09-13T13:16:02.132Z,64.70
2022-09-13T13:18:46.142Z,65.00
2022-09-13T13:21:42.808Z,65.00
2022-09-13T13:24:48.944Z,64.80
2022-09-13T13:27:48.565Z,65.90
2022-09-13T13:30:53.723Z,67.10
2022-09-13T13:33:48.188Z,67.10
2022-09-13T13:36:24.616Z,73.50
2022-09-13T13:38:54.365Z,67.90
2022-09-13T13:41:55.659Z,67.70
2022-09-13T13:45:17.977Z,67.00
2022-09-13T13:48:13.217Z,69.20
2022-09-13T13:51:22.724Z,67.70
2022-09-13T13:54:26.130Z,66.90
2022-09-13T13:56:54.966Z,66.40
2022-09-13T13:59:32.012Z,65.60
2022-09-13T14:02:01.993Z,65.00
2022-09-13T14:05:10.080Z,65.40
2022-09-13T14:08:13.319Z,66.00
2022-09-13T14:10:55.120Z,66.30
2022-09-13T14:13:47.285Z,66.00
2022-09-13T14:16:36.923Z,66.00
2022-09-13T14:19:28.777Z,64.40
2022-09-13T14:22:15.429Z,65.00
2022-09-13T14:24:48.879Z,65.40
2022-09-13T14:27:23.127Z,65.10
2022-09-13T14:29:55.348Z,65.80
2022-09-13T14:32:35.054Z,64.80
2022-09-13T14:35:22.749Z,65.50
2022-09-13T14:37:51.536Z,64.80
2022-09-13T14:40:26.715Z,63.60
2022-09-13T14:42:57.228Z,64.30
2022-09-13T14:45:32.375Z,64.50
2022-09-13T14:48:08.979Z,64.20
2022-09-13T14:50:44.293Z,64.50
2022-09-13T14:53:19.806Z,64.40
2022-09-13T14:55:54.628Z,65.50
2022-09-13T14:58:28.192Z,64.20
2022-09-13T15:01:01.757Z,64.40
2022-09-13T15:03:31.150Z,65.30
2022-09-13T15:06:02.881Z,65.70
2022-09-13T15:08:48.319Z,65.20
2022-09-13T15:11:34.664Z,64.30
2022-09-13T15:14:28.369Z,65.80
2022-09-13T15:17:07.924Z,64.40
2022-09-13T15:19:44.614Z,64.80
2022-09-13T15:22:31.425Z,66.40
2022-09-13T15:25:02.816Z,65.50
2022-09-13T15:27:45.572Z,65.60
2022-09-13T15:30:24.827Z,66.40
2022-09-13T15:33:15.280Z,66.60
2022-09-13T15:35:46.656Z,67.40
2022-09-13T15:38:25.389Z,71.30
2022-09-13T15:41:04.506Z,72.60
2022-09-13T15:43:34.587Z,72.60
2022-09-13T15:46:03.249Z,74.20
2022-09-13T15:48:35.240Z,74.50
2022-09-13T15:51:11.454Z,75.00
2022-09-13T15:53:43.379Z,75.00
2022-09-13T15:56:19.468Z,75.90
2022-09-13T15:58:49.946Z,75.00
2022-09-13T16:01:19.394Z,74.40
2022-09-13T16:03:48.099Z,77.60
2022-09-13T16:06:18.102Z,78.50
2022-09-13T16:08:48.263Z,78.30
2022-09-13T16:11:17.020Z,79.10
2022-09-13T16:13:45.872Z,79.80
2022-09-13T16:16:16.616Z,80.10
2022-09-13T16:18:45.781Z,80.40
2022-09-13T16:21:14.399Z,81.50
2022-09-13T16:23:43.291Z,81.80
2022-09-13T16:26:12.697Z,83.10
2022-09-13T16:28:41.297Z,84.50
2022-09-13T16:31:10.291Z,85.80
2022-09-13T16:33:40.293Z,86.40
2022-09-13T16:36:12.814Z,86.40
2022-09-13T16:38:41.512Z,83.90
2022-09-13T16:41:10.335Z,83.50
2022-09-13T16:43:39.199Z,83.50
2022-09-13T16:46:09.212Z,83.70
2022-09-13T16:48:39.605Z,83.90
2022-09-13T16:51:11.286Z,82.30
2022-09-13T16:53:43.497Z,82.70
2022-09-13T16:56:15.975Z,83.30
2022-09-13T16:58:47.806Z,85.00
2022-09-13T17:01:21.441Z,84.00
2022-09-13T17:03:54.569Z,84.00
2022-09-13T17:06:27.106Z,84.40
2022-09-13T17:09:00.778Z,82.80
2022-09-13T17:11:31.470Z,82.50
2022-09-13T17:14:02.011Z,82.10
2022-09-13T17:16:34.322Z,82.10
2022-09-13T17:19:14.790Z,82.70
2022-09-13T17:21:44.569Z,83.50
2022-09-13T17:24:13.959Z,84.30
2022-09-13T17:26:42.722Z,85.00
2022-09-13T17:29:13.818Z,86.10
2022-09-13T17:31:43.775Z,88.00
2022-09-13T17:34:14.418Z,89.80
2022-09-13T17:36:44.988Z,90.50
2022-09-13T17:39:15.173Z,90.30
2022-09-13T17:41:43.904Z,90.30
2022-09-13T17:44:13.220Z,90.20
2022-09-13T17:46:41.975Z,89.90
2022-09-13T17:49:10.814Z,89.50
2022-09-13T17:51:40.834Z,90.00
2022-09-13T17:54:11.879Z,91.00
2022-09-13T17:56:43.376Z,91.30
2022-09-13T17:59:15.301Z,92.50
2022-09-13T18:01:47.007Z,92.20
2022-09-13T18:04:18.232Z,92.20
2022-09-13T18:06:49.046Z,91.80
2022-09-13T18:09:17.903Z,91.90
2022-09-13T18:11:46.725Z,91.80
2022-09-13T18:14:17.736Z,92.40
2022-09-13T18:16:49.385Z,93.00
2022-09-13T18:19:29.894Z,94.10
2022-09-13T18:22:09.312Z,95.40
2022-09-13T18:24:38.430Z,95.00
2022-09-13T18:27:07.423Z,95.10
2022-09-13T18:29:36.103Z,94.70
2022-09-13T18:32:05.120Z,94.80
2022-09-13T18:34:33.792Z,94.00
2022-09-13T18:37:02.441Z,94.50
2022-09-13T18:39:32.523Z,95.60
2022-09-13T18:42:01.805Z,96.20
2022-09-13T18:44:31.061Z,97.00
2022-09-13T18:47:00.712Z,97.50
2022-09-13T18:49:29.450Z,98.60
2022-09-13T18:51:58.392Z,99.90
2022-09-13T18:54:27.496Z,99.90
2022-09-13T18:56:57.963Z,99.90
2022-09-13T18:59:27.817Z,99.90
2022-09-13T19:01:56.623Z,99.90
2022-09-13T19:04:25.450Z,99.90
2022-09-13T19:06:57.007Z,99.90
2022-09-13T19:09:26.019Z,99.90
2022-09-13T19:11:56.881Z,99.90
2022-09-13T19:14:29.474Z,99.90
2022-09-13T19:17:03.093Z,99.90
2022-09-13T19:19:32.301Z,99.90
2022-09-13T19:22:01.013Z,99.90
2022-09-13T19:24:29.773Z,99.90
2022-09-13T19:27:01.566Z,99.90
2022-09-13T19:29:30.512Z,99.90
2022-09-13T19:31:59.191Z,99.90
2022-09-13T19:34:28.054Z,99.90
2022-09-13T19:36:58.650Z,99.90
2022-09-13T19:39:30.639Z,99.90
2022-09-13T19:42:02.815Z,99.90
2022-09-13T19:44:31.558Z,99.90
2022-09-13T19:49:50.782Z,99.90
2022-09-13T19:52:19.378Z,99.90
2022-09-13T19:54:48.022Z,99.90
2022-09-13T19:57:18.018Z,99.90
2022-09-13T19:59:46.561Z,99.90
2022-09-13T20:02:15.615Z,99.90
2022-09-13T20:04:44.346Z,99.90
2022-09-13T20:07:14.402Z,99.90
2022-09-13T20:09:47.055Z,99.90
2022-09-13T20:12:17.414Z,99.90
2022-09-13T20:14:45.995Z,99.90
2022-09-13T20:17:14.616Z,99.90
2022-09-13T20:19:49.118Z,99.90
2022-09-13T20:22:18.616Z,99.90
2022-09-13T20:24:47.518Z,99.90
2022-09-13T20:27:17.671Z,99.90
2022-09-13T20:29:46.290Z,99.90
2022-09-13T20:32:14.892Z,99.90
2022-09-13T20:34:43.558Z,99.90
2022-09-13T20:37:12.550Z,99.90
2022-09-13T20:39:41.133Z,99.90
2022-09-13T20:42:09.726Z,99.90
2022-09-13T20:44:41.086Z,99.90
2022-09-13T20:47:11.514Z,99.90
2022-09-13T20:49:40.230Z,99.90
2022-09-13T20:52:08.856Z,99.90
2022-09-13T20:54:37.489Z,99.90
2022-09-13T20:57:06.748Z,99.90
2022-09-13T20:59:35.966Z,99.90
2022-09-13T21:02:06.235Z,99.90
2022-09-13T21:04:34.903Z,99.90
2022-09-13T21:07:20.856Z,99.90
2022-09-13T21:09:49.541Z,99.90
2022-09-13T21:12:18.124Z,99.90
2022-09-13T21:14:53.382Z,99.90
2022-09-13T21:17:23.588Z,99.90
2022-09-13T21:19:52.189Z,99.90
2022-09-13T21:22:21.102Z,99.90
2022-09-13T21:24:49.769Z,99.90
2022-09-13T21:27:19.293Z,99.90
2022-09-13T21:29:47.970Z,99.90
2022-09-13T21:32:16.589Z,99.90
2022-09-13T21:34:46.751Z,99.90
2022-09-13T21:37:15.629Z,99.90
2022-09-13T21:39:44.194Z,99.90
2022-09-13T21:42:12.787Z,99.90
2022-09-13T21:44:41.386Z,99.90
2022-09-13T21:47:10.483Z,99.90
2022-09-13T21:49:39.033Z,99.90
2022-09-13T21:52:08.923Z,99.90
2022-09-13T21:54:37.583Z,99.90
2022-09-13T21:57:06.384Z,99.90
2022-09-13T21:59:34.962Z,99.90
2022-09-13T22:02:03.816Z,99.90
2022-09-13T22:04:33.139Z,99.90
2022-09-13T22:07:01.863Z,99.90
2022-09-13T22:09:31.824Z,99.90
2022-09-13T22:12:00.874Z,99.90
2022-09-13T22:14:29.509Z,99.90
2022-09-13T22:16:58.243Z,99.90
2022-09-13T22:19:28.237Z,99.90
2022-09-13T22:22:00.041Z,99.90
2022-09-13T22:24:32.520Z,99.90
2022-09-13T22:27:01.228Z,99.90
2022-09-13T22:29:30.088Z,99.90
2022-09-13T22:31:58.764Z,99.90
2022-09-13T22:34:31.033Z,99.90
2022-09-13T22:37:00.204Z,99.90
2022-09-13T22:39:29.131Z,99.90
2022-09-13T22:41:59.112Z,99.90
2022-09-13T22:44:27.701Z,99.90
2022-09-13T22:46:57.104Z,99.90
2022-09-13T22:49:25.746Z,99.90
2022-09-13T22:51:54.325Z,99.90
2022-09-13T22:54:22.907Z,99.90
2022-09-13T22:56:51.495Z,99.90
2022-09-13T22:59:22.890Z,99.90
2022-09-13T23:01:51.793Z,99.90
2022-09-13T23:04:20.487Z,99.90
2022-09-13T23:06:49.190Z,99.90
2022-09-13T23:09:20.115Z,99.90
2022-09-13T23:11:50.256Z,99.90
2022-09-13T23:14:21.044Z,99.90
2022-09-13T23:16:51.828Z,99.90
2022-09-13T23:19:23.189Z,99.90
2022-09-13T23:21:54.629Z,99.90
2022-09-13T23:24:24.314Z,99.90
2022-09-13T23:26:55.396Z,99.90
2022-09-13T23:29:25.646Z,99.90
2022-09-13T23:31:54.480Z,99.90
2022-09-13T23:34:23.576Z,99.90
2022-09-13T23:36:52.525Z,99.90
2022-09-13T23:39:22.205Z,99.90
2022-09-13T23:41:52.234Z,99.90
2022-09-13T23:44:20.926Z,99.90
2022-09-13T23:46:51.988Z,99.90
2022-09-13T23:49:20.805Z,99.90
2022-09-13T23:51:49.569Z,99.90
2022-09-13T23:54:18.511Z,99.90
2022-09-13T23:56:47.222Z,99.90
2022-09-13T23:59:15.971Z,99.90
